Time;durP1;ratioP1;P1;durP2;ratioP2;P2;SDS_P1;SDS_P2;PMS_P1;PMS_P2;Temp;Humidity;BMP_temperature;BMP_pressure;BME280_temperature;BME280_humidity;BME280_pressure;Samples;Min_cycle;Max_cycle;Signal;HPM_P1;HPM_P2
2022/11/16 00:02:10;;;;;;;4.60;3.60;;;;;;;;;;5074833;28;20195;-46
2022/11/16 00:04:37;;;;;;;5.00;3.80;;;;;;;;;;5074893;28;20274;-46
2022/11/16 00:07:05;;;;;;;5.30;3.60;;;;;;;;;;5074572;28;20645;-46
2022/11/16 00:09:31;;;;;;;5.13;3.90;;;;;;;;;;5074744;28;20587;-46
2022/11/16 00:11:58;;;;;;;5.50;3.60;;;;;;;;;;5074843;28;20203;-46
2022/11/16 00:14:25;;;;;;;3.97;3.57;;;;;;;;;;5061935;28;20311;-46
2022/11/16 00:16:51;;;;;;;7.60;4.43;;;;;;;;;;5054852;28;20236;-46
2022/11/16 00:19:18;;;;;;;9.63;4.27;;;;;;;;;;5054306;28;20235;-46
2022/11/16 00:21:44;;;;;;;6.30;4.10;;;;;;;;;;5054598;28;20204;-46
2022/11/16 00:24:11;;;;;;;4.20;3.80;;;;;;;;;;5054723;28;20283;-46
2022/11/16 00:26:37;;;;;;;4.53;3.90;;;;;;;;;;5054457;28;20215;-46
2022/11/16 00:29:03;;;;;;;4.17;3.80;;;;;;;;;;5054388;28;20242;-46
2022/11/16 00:31:29;;;;;;;5.03;4.07;;;;;;;;;;5054193;28;20296;-46
2022/11/16 00:33:55;;;;;;;4.80;4.03;;;;;;;;;;5054513;28;20227;-46
2022/11/16 00:36:21;;;;;;;7.07;3.90;;;;;;;;;;5054231;28;20200;-46
2022/11/16 00:38:52;;;;;;;4.17;3.57;;;;;;;;;;5054210;28;20236;-46
2022/11/16 00:41:20;;;;;;;5.10;3.83;;;;;;;;;;5054059;28;20699;-46
2022/11/16 00:43:46;;;;;;;5.07;3.77;;;;;;;;;;5053833;28;20282;-46
2022/11/16 00:46:12;;;;;;;4.77;4.23;;;;;;;;;;5054311;28;20830;-46
2022/11/16 00:48:38;;;;;;;7.80;3.97;;;;;;;;;;5054003;28;20235;-46
2022/11/16 00:51:04;;;;;;;5.10;4.23;;;;;;;;;;5054062;28;20572;-46
2022/11/16 00:53:30;;;;;;;5.77;4.50;;;;;;;;;;5054006;28;20196;-46
2022/11/16 00:55:56;;;;;;;6.53;4.30;;;;;;;;;;5053751;28;20196;-46
2022/11/16 00:58:23;;;;;;;4.77;4.27;;;;;;;;;;5053912;28;20224;-46
2022/11/16 01:00:50;;;;;;;7.00;4.20;;;;;;;;;;5053765;28;20218;-46
2022/11/16 01:03:16;;;;;;;5.10;4.43;;;;;;;;;;5053490;28;20210;-46
2022/11/16 01:05:42;;;;;;;5.23;4.43;;;;;;;;;;5053276;28;20729;-46
2022/11/16 01:08:08;;;;;;;6.80;4.90;;;;;;;;;;5053425;28;20212;-46
2022/11/16 01:10:34;;;;;;;5.67;4.87;;;;;;;;;;5053612;28;20200;-46
2022/11/16 01:13:00;;;;;;;4.97;4.53;;;;;;;;;;5053698;28;20211;-46
2022/11/16 01:15:27;;;;;;;5.90;4.67;;;;;;;;;;5052224;28;20258;-46
2022/11/16 01:17:55;;;;;;;7.33;4.73;;;;;;;;;;5072941;28;20227;-46
2022/11/16 01:20:22;;;;;;;6.00;4.73;;;;;;;;;;5072439;28;20199;-46
2022/11/16 01:22:48;;;;;;;5.30;4.40;;;;;;;;;;5073457;28;20203;-46
2022/11/16 01:25:15;;;;;;;5.43;4.93;;;;;;;;;;5073360;28;20196;-46
2022/11/16 01:27:41;;;;;;;5.97;4.50;;;;;;;;;;5073369;28;20203;-46
2022/11/16 01:30:09;;;;;;;5.73;4.63;;;;;;;;;;5073577;28;20222;-46
2022/11/16 01:32:37;;;;;;;7.37;4.70;;;;;;;;;;5072949;28;20238;-46
2022/11/16 01:35:03;;;;;;;5.33;4.77;;;;;;;;;;5073331;28;20199;-46
2022/11/16 01:37:29;;;;;;;6.40;4.90;;;;;;;;;;5072860;28;20619;-46
2022/11/16 01:39:55;;;;;;;8.03;4.73;;;;;;;;;;5072291;28;20709;-45
2022/11/16 01:42:23;;;;;;;6.53;4.43;;;;;;;;;;5072946;28;20199;-46
2022/11/16 01:45:00;;;;;;;6.60;4.63;;;;;;;;;;5073169;28;20666;-46
2022/11/16 01:47:26;;;;;;;8.80;5.27;;;;;;;;;;5073294;28;20245;-46
2022/11/16 01:49:55;;;;;;;10.10;4.87;;;;;;;;;;5072974;28;20826;-46
2022/11/16 01:52:22;;;;;;;6.23;4.97;;;;;;;;;;5072859;28;20211;-46
2022/11/16 01:54:49;;;;;;;6.53;4.87;;;;;;;;;;5072080;28;20261;-46
2022/11/16 01:57:17;;;;;;;7.70;4.90;;;;;;;;;;5072400;28;20746;-46
2022/11/16 01:59:44;;;;;;;5.50;5.00;;;;;;;;;;5072526;28;20195;-46
2022/11/16 02:02:10;;;;;;;5.70;4.67;;;;;;;;;;5072870;28;20627;-46
2022/11/16 02:04:36;;;;;;;5.73;4.73;;;;;;;;;;5071382;28;20821;-47
2022/11/16 02:07:09;;;;;;;5.47;4.50;;;;;;;;;;5072667;28;20242;-46
2022/11/16 02:09:54;;;;;;;6.47;4.80;;;;;;;;;;5072426;28;20251;-46
2022/11/16 02:12:30;;;;;;;7.47;5.07;;;;;;;;;;5072202;28;20253;-46
2022/11/16 02:15:03;;;;;;;5.33;4.60;;;;;;;;;;5072497;28;20597;-46
2022/11/16 02:17:36;;;;;;;6.53;5.30;;;;;;;;;;5072381;28;20223;-46
2022/11/16 02:20:22;;;;;;;6.57;5.03;;;;;;;;;;5072251;28;20551;-46
2022/11/16 02:22:56;;;;;;;6.07;4.77;;;;;;;;;;5072399;28;20226;-46
2022/11/16 02:25:26;;;;;;;7.73;5.77;;;;;;;;;;5072304;28;20202;-46
2022/11/16 02:28:04;;;;;;;9.03;5.30;;;;;;;;;;5071326;28;20192;-46
2022/11/16 02:30:32;;;;;;;6.47;5.03;;;;;;;;;;5072228;28;20564;-46
2022/11/16 02:33:00;;;;;;;7.43;5.07;;;;;;;;;;5072502;28;20199;-46
2022/11/16 02:35:28;;;;;;;6.23;4.53;;;;;;;;;;5072362;28;20226;-46
2022/11/16 02:37:56;;;;;;;6.67;5.30;;;;;;;;;;5072056;28;20258;-46
2022/11/16 02:40:23;;;;;;;8.27;4.90;;;;;;;;;;5072135;28;20196;-45
2022/11/16 02:42:51;;;;;;;5.67;5.03;;;;;;;;;;5071671;28;20283;-45
2022/11/16 02:45:19;;;;;;;8.03;5.87;;;;;;;;;;5071981;28;20196;-45
2022/11/16 02:47:48;;;;;;;5.93;5.00;;;;;;;;;;5070742;28;20550;-46
2022/11/16 02:50:17;;;;;;;6.47;5.13;;;;;;;;;;5072281;28;20196;-45
2022/11/16 02:52:43;;;;;;;7.33;5.50;;;;;;;;;;5071757;28;20203;-45
2022/11/16 02:55:09;;;;;;;5.63;4.80;;;;;;;;;;5070715;28;20609;-45
2022/11/16 02:57:42;;;;;;;6.80;5.87;;;;;;;;;;5071458;28;20223;-45
2022/11/16 03:00:09;;;;;;;6.13;5.47;;;;;;;;;;5071115;28;20868;-45
2022/11/16 03:02:39;;;;;;;9.50;5.70;;;;;;;;;;5071728;28;20207;-45
2022/11/16 03:05:09;;;;;;;7.27;5.50;;;;;;;;;;5071692;28;20385;-46
2022/11/16 03:07:37;;;;;;;6.80;5.93;;;;;;;;;;5071610;28;20231;-46
2022/11/16 03:10:04;;;;;;;6.07;5.20;;;;;;;;;;5071658;28;20209;-45
2022/11/16 03:12:31;;;;;;;6.20;4.50;;;;;;;;;;5071633;28;20196;-45
2022/11/16 03:14:58;;;;;;;7.00;5.47;;;;;;;;;;5071721;28;20673;-45
2022/11/16 03:17:26;;;;;;;7.20;5.83;;;;;;;;;;5071755;28;20192;-45
2022/11/16 03:19:56;;;;;;;6.10;5.50;;;;;;;;;;5071553;28;20203;-46
2022/11/16 03:22:26;;;;;;;7.43;5.90;;;;;;;;;;5070812;28;20296;-46
2022/11/16 03:24:52;;;;;;;8.57;5.80;;;;;;;;;;5071366;28;20219;-45
2022/11/16 03:27:24;;;;;;;7.50;5.63;;;;;;;;;;5071416;28;20208;-46
2022/11/16 03:29:54;;;;;;;7.33;5.37;;;;;;;;;;5071443;28;20286;-46
2022/11/16 03:32:22;;;;;;;9.50;6.10;;;;;;;;;;5071570;28;20557;-45
2022/11/16 03:34:50;;;;;;;7.20;5.87;;;;;;;;;;5071380;28;20638;-46
2022/11/16 03:37:17;;;;;;;6.20;5.60;;;;;;;;;;5071349;28;20235;-46
2022/11/16 03:39:44;;;;;;;6.90;5.87;;;;;;;;;;5071165;28;20669;-46
2022/11/16 03:42:13;;;;;;;7.63;6.43;;;;;;;;;;5071329;28;20268;-47
2022/11/16 03:44:40;;;;;;;7.13;5.70;;;;;;;;;;5070759;28;20203;-47
2022/11/16 03:47:06;;;;;;;7.57;5.53;;;;;;;;;;5071080;28;20199;-46
2022/11/16 03:49:32;;;;;;;7.00;6.30;;;;;;;;;;5069828;28;20234;-46
2022/11/16 03:51:58;;;;;;;6.07;5.47;;;;;;;;;;5071293;28;20191;-46
2022/11/16 03:54:24;;;;;;;7.60;6.20;;;;;;;;;;5071164;28;20195;-46
2022/11/16 03:56:52;;;;;;;7.27;5.83;;;;;;;;;;5071182;28;20207;-47
2022/11/16 03:59:18;;;;;;;6.70;6.03;;;;;;;;;;5071212;28;20701;-45
2022/11/16 04:01:44;;;;;;;8.10;6.57;;;;;;;;;;5071158;28;20577;-46
2022/11/16 04:24:10;;;;;;;8.20;6.37;;;;;;;;;;5071140;28;20280;-45
2022/11/16 04:28:12;;;;;;;7.93;6.80;;;;;;;;;;5070789;28;20230;-45
2022/11/16 04:29:11;;;;;;;9.30;7.93;;;;;;;;;;5069790;28;20669;-48
2022/11/16 04:39:53;;;;;;;9.10;8.20;;;;;;;;;;5074335;28;20203;-45
2022/11/16 04:42:21;;;;;;;12.50;9.00;;;;;;;;;;5074551;28;20196;-45
2022/11/16 04:47:33;;;;;;;10.77;9.67;;;;;;;;;;5074266;28;20575;-45
2022/11/16 04:49:59;;;;;;;10.90;9.40;;;;;;;;;;5073715;28;20239;-45
2022/11/16 04:52:25;;;;;;;10.90;9.77;;;;;;;;;;5071444;28;20195;-45
2022/11/16 04:54:51;;;;;;;12.30;10.20;;;;;;;;;;5072583;28;20207;-45
2022/11/16 04:57:17;;;;;;;12.23;10.13;;;;;;;;;;5073591;28;20199;-45
2022/11/16 04:59:43;;;;;;;12.70;9.80;;;;;;;;;;5073753;28;20591;-45
2022/11/16 05:02:11;;;;;;;13.10;9.80;;;;;;;;;;5073782;28;20704;-45
2022/11/16 05:04:37;;;;;;;12.77;9.80;;;;;;;;;;5073883;28;20590;-45
2022/11/16 05:07:09;;;;;;;11.77;10.50;;;;;;;;;;5073754;28;20191;-45
2022/11/16 05:09:38;;;;;;;13.57;11.10;;;;;;;;;;5072197;28;20234;-45
2022/11/16 05:12:04;;;;;;;13.37;11.17;;;;;;;;;;5072253;28;20199;-44
2022/11/16 05:14:30;;;;;;;14.77;11.13;;;;;;;;;;5074026;28;20203;-45
2022/11/16 05:16:56;;;;;;;13.70;11.33;;;;;;;;;;5074128;28;20222;-45
2022/11/16 05:22:08;;;;;;;12.23;10.13;;;;;;;;;;5073795;28;20202;-45
2022/11/16 05:24:34;;;;;;;13.83;11.33;;;;;;;;;;5073553;28;20204;-45
2022/11/16 05:27:01;;;;;;;15.73;11.07;;;;;;;;;;5073574;28;20565;-45
2022/11/16 05:29:27;;;;;;;16.13;12.03;;;;;;;;;;5073298;28;20725;-45
2022/11/16 05:31:53;;;;;;;13.73;11.47;;;;;;;;;;5073729;28;20275;-45
2022/11/16 05:34:19;;;;;;;14.50;11.67;;;;;;;;;;5073428;28;20231;-45
2022/11/16 05:36:46;;;;;;;14.93;12.10;;;;;;;;;;5072504;28;20227;-45
2022/11/16 05:39:12;;;;;;;16.30;12.57;;;;;;;;;;5073423;28;20337;-45
2022/11/16 05:41:38;;;;;;;15.90;12.27;;;;;;;;;;5073259;28;20203;-45
2022/11/16 05:44:04;;;;;;;16.33;12.63;;;;;;;;;;5073611;28;20269;-45
2022/11/16 05:46:30;;;;;;;13.73;12.27;;;;;;;;;;5072360;28;20200;-45
2022/11/16 05:48:56;;;;;;;16.23;13.40;;;;;;;;;;5073138;28;20239;-45
2022/11/16 05:51:22;;;;;;;18.90;13.30;;;;;;;;;;5073382;28;20219;-45
2022/11/16 05:53:50;;;;;;;15.13;12.33;;;;;;;;;;5073252;28;20195;-45
2022/11/16 05:56:16;;;;;;;19.77;13.77;;;;;;;;;;5072931;28;20203;-45
2022/11/16 05:58:42;;;;;;;16.50;13.63;;;;;;;;;;5072645;28;20223;-46
2022/11/16 06:01:08;;;;;;;16.43;12.87;;;;;;;;;;5073164;28;20587;-46
2022/11/16 06:03:35;;;;;;;15.50;12.43;;;;;;;;;;5073130;28;20617;-45
2022/11/16 06:06:01;;;;;;;18.07;13.33;;;;;;;;;;5072959;28;20282;-46
2022/11/16 06:08:27;;;;;;;16.07;13.50;;;;;;;;;;5072804;28;20220;-45
2022/11/16 06:10:55;;;;;;;17.00;13.73;;;;;;;;;;5072545;28;20638;-45
2022/11/16 06:13:21;;;;;;;18.57;14.93;;;;;;;;;;5070802;28;20207;-45
2022/11/16 06:15:47;;;;;;;19.00;14.43;;;;;;;;;;5071607;28;20744;-46
2022/11/16 06:18:13;;;;;;;15.67;12.73;;;;;;;;;;5072230;28;20223;-45
2022/11/16 06:20:39;;;;;;;17.47;13.63;;;;;;;;;;5072435;28;20253;-44
2022/11/16 06:23:05;;;;;;;16.17;13.87;;;;;;;;;;5072352;28;20673;-44
2022/11/16 06:25:31;;;;;;;18.07;14.00;;;;;;;;;;5072668;28;20202;-46
2022/11/16 06:27:59;;;;;;;17.60;14.40;;;;;;;;;;5072278;28;20249;-46
2022/11/16 06:30:25;;;;;;;20.30;13.57;;;;;;;;;;5072473;28;20674;-46
2022/11/16 06:32:51;;;;;;;17.43;14.13;;;;;;;;;;5072299;28;20712;-46
2022/11/16 06:35:17;;;;;;;17.83;14.47;;;;;;;;;;5072180;28;20203;-46
2022/11/16 06:37:43;;;;;;;15.77;13.37;;;;;;;;;;5072072;28;20191;-45
2022/11/16 06:40:10;;;;;;;18.50;13.90;;;;;;;;;;5072232;28;20227;-45
2022/11/16 06:42:36;;;;;;;17.80;12.67;;;;;;;;;;5072237;28;20199;-44
2022/11/16 06:45:04;;;;;;;16.57;14.00;;;;;;;;;;5072282;28;20200;-45
2022/11/16 06:47:31;;;;;;;17.03;13.60;;;;;;;;;;5072385;28;20203;-46
2022/11/16 06:49:57;;;;;;;13.30;11.53;;;;;;;;;;5070368;28;20250;-46
2022/11/16 06:52:23;;;;;;;17.00;14.13;;;;;;;;;;5072052;28;20200;-46
2022/11/16 06:54:49;;;;;;;18.90;14.97;;;;;;;;;;5071874;28;20203;-46
2022/11/16 06:57:15;;;;;;;19.33;14.70;;;;;;;;;;5072000;28;20199;-46
2022/11/16 06:59:41;;;;;;;18.17;13.90;;;;;;;;;;5071874;28;20231;-46
2022/11/16 07:02:09;;;;;;;18.10;15.17;;;;;;;;;;5072039;28;20219;-46
2022/11/16 07:04:35;;;;;;;17.63;14.37;;;;;;;;;;5071848;28;20286;-46
2022/11/16 07:07:01;;;;;;;21.07;14.23;;;;;;;;;;5070960;28;20307;-46
2022/11/16 07:09:27;;;;;;;17.90;14.77;;;;;;;;;;5070887;28;20240;-46
2022/11/16 07:11:53;;;;;;;22.53;15.27;;;;;;;;;;5069615;28;20199;-46
2022/11/16 07:14:19;;;;;;;17.30;13.73;;;;;;;;;;5071851;28;20203;-46
2022/11/16 07:16:45;;;;;;;17.30;14.60;;;;;;;;;;5071771;28;20202;-46
2022/11/16 07:19:12;;;;;;;19.27;14.63;;;;;;;;;;5069000;28;20630;-46
2022/11/16 07:21:39;;;;;;;17.77;14.07;;;;;;;;;;5070018;28;20537;-46
2022/11/16 07:24:05;;;;;;;19.03;14.70;;;;;;;;;;5071738;28;20429;-46
2022/11/16 07:26:31;;;;;;;17.10;14.57;;;;;;;;;;5071706;28;20286;-46
2022/11/16 07:28:57;;;;;;;24.63;15.63;;;;;;;;;;5071688;28;20676;-46
2022/11/16 07:31:24;;;;;;;18.53;15.33;;;;;;;;;;5070069;28;20568;-46
2022/11/16 07:33:51;;;;;;;20.70;15.87;;;;;;;;;;5071679;28;20204;-46
2022/11/16 07:36:18;;;;;;;20.30;15.67;;;;;;;;;;5071633;28;20621;-45
2022/11/16 07:38:44;;;;;;;22.37;16.53;;;;;;;;;;5068810;28;20223;-45
2022/11/16 07:41:11;;;;;;;22.20;15.73;;;;;;;;;;5070121;28;20199;-45
2022/11/16 07:43:38;;;;;;;20.93;15.97;;;;;;;;;;5071615;28;20249;-46
2022/11/16 07:46:05;;;;;;;21.67;17.00;;;;;;;;;;5071377;28;20206;-45
2022/11/16 07:48:31;;;;;;;21.73;17.63;;;;;;;;;;5071289;28;20236;-46
2022/11/16 07:50:59;;;;;;;23.40;18.30;;;;;;;;;;5071587;28;20200;-45
2022/11/16 07:53:27;;;;;;;23.10;17.50;;;;;;;;;;5071373;28;20202;-46
2022/11/16 07:55:53;;;;;;;23.93;18.17;;;;;;;;;;5071183;28;20282;-45
2022/11/16 07:58:19;;;;;;;21.70;18.13;;;;;;;;;;5070353;28;20246;-46
2022/11/16 08:00:45;;;;;;;27.37;20.53;;;;;;;;;;5071361;28;20642;-46
2022/11/16 08:03:11;;;;;;;24.73;20.10;;;;;;;;;;5071306;28;20729;-46
2022/11/16 08:05:37;;;;;;;24.37;18.63;;;;;;;;;;5071242;28;20200;-47
2022/11/16 08:08:03;;;;;;;24.30;19.50;;;;;;;;;;5070968;28;20265;-46
2022/11/16 08:10:30;;;;;;;29.03;20.73;;;;;;;;;;5073389;28;20203;-46
2022/11/16 08:12:57;;;;;;;25.83;18.77;;;;;;;;;;5074817;28;20200;-46
2022/11/16 08:15:23;;;;;;;20.30;16.57;;;;;;;;;;5075464;28;20203;-46
2022/11/16 08:17:49;;;;;;;20.73;15.53;;;;;;;;;;5075190;28;20661;-45
2022/11/16 08:20:15;;;;;;;23.63;17.30;;;;;;;;;;5074994;28;20196;-46
2022/11/16 08:22:41;;;;;;;21.37;17.50;;;;;;;;;;5074847;28;20204;-45
2022/11/16 08:25:08;;;;;;;20.93;16.07;;;;;;;;;;5074706;28;20267;-45
2022/11/16 08:27:35;;;;;;;20.43;16.07;;;;;;;;;;5074952;28;20199;-45
2022/11/16 08:30:02;;;;;;;19.90;16.23;;;;;;;;;;5074912;28;20592;-46
2022/11/16 08:32:28;;;;;;;23.00;16.17;;;;;;;;;;5074696;28;20223;-45
2022/11/16 08:34:54;;;;;;;23.00;16.57;;;;;;;;;;5073126;28;20215;-46
2022/11/16 08:37:20;;;;;;;20.37;16.47;;;;;;;;;;5074901;28;20191;-45
2022/11/16 08:39:46;;;;;;;19.83;16.20;;;;;;;;;;5074553;28;20272;-46
2022/11/16 08:42:13;;;;;;;20.83;15.83;;;;;;;;;;5074759;28;20192;-45
2022/11/16 08:44:40;;;;;;;18.17;14.90;;;;;;;;;;5074629;28;20196;-45
2022/11/16 08:47:06;;;;;;;18.57;15.90;;;;;;;;;;5074739;28;20291;-45
2022/11/16 08:49:32;;;;;;;21.40;16.70;;;;;;;;;;5074355;28;20282;-45
2022/11/16 08:51:58;;;;;;;20.27;17.03;;;;;;;;;;5074409;28;20678;-46
2022/11/16 08:54:24;;;;;;;23.30;18.23;;;;;;;;;;5073460;28;20235;-44
2022/11/16 08:56:50;;;;;;;20.37;16.93;;;;;;;;;;5074459;28;20192;-47
2022/11/16 08:59:16;;;;;;;22.57;18.63;;;;;;;;;;5074468;28;20272;-47
2022/11/16 09:01:43;;;;;;;22.30;17.97;;;;;;;;;;5066084;28;20552;-46
2022/11/16 09:04:10;;;;;;;23.93;18.67;;;;;;;;;;5063503;28;20758;-45
2022/11/16 09:06:36;;;;;;;26.27;20.03;;;;;;;;;;5061898;28;20279;-45
2022/11/16 09:09:02;;;;;;;24.80;20.67;;;;;;;;;;5063051;28;20682;-45
2022/11/16 09:11:28;;;;;;;25.70;20.00;;;;;;;;;;5061466;28;20663;-45
2022/11/16 09:13:54;;;;;;;22.30;18.93;;;;;;;;;;5050722;28;20403;-44
2022/11/16 09:16:21;;;;;;;24.90;18.03;;;;;;;;;;5053724;28;20203;-45
2022/11/16 09:18:49;;;;;;;23.23;19.23;;;;;;;;;;5053666;28;20691;-44
2022/11/16 09:21:18;;;;;;;26.27;20.03;;;;;;;;;;5053495;28;20228;-45
2022/11/16 09:23:44;;;;;;;28.27;21.90;;;;;;;;;;5051482;28;20210;-46
2022/11/16 09:26:12;;;;;;;27.70;21.07;;;;;;;;;;5053966;28;20200;-46
2022/11/16 09:28:38;;;;;;;28.10;20.50;;;;;;;;;;5053866;28;20284;-46
2022/11/16 09:31:05;;;;;;;30.37;23.17;;;;;;;;;;5053767;28;20205;-45
2022/11/16 09:33:31;;;;;;;28.37;22.67;;;;;;;;;;5049731;28;20204;-45
2022/11/16 09:36:01;;;;;;;29.97;22.63;;;;;;;;;;5052995;28;20207;-45
2022/11/16 09:38:28;;;;;;;25.40;21.20;;;;;;;;;;5052083;28;20219;-47
2022/11/16 09:40:54;;;;;;;29.77;23.00;;;;;;;;;;5052865;28;20682;-46
2022/11/16 09:43:24;;;;;;;28.87;22.97;;;;;;;;;;5053607;28;20197;-46
2022/11/16 09:45:52;;;;;;;26.73;21.60;;;;;;;;;;5053543;28;20290;-46
2022/11/16 09:48:20;;;;;;;27.00;21.07;;;;;;;;;;5053202;28;20572;-46
2022/11/16 09:50:48;;;;;;;29.27;21.73;;;;;;;;;;5052958;28;20204;-46
2022/11/16 09:53:20;;;;;;;28.87;22.07;;;;;;;;;;5053251;28;20200;-45
2022/11/16 09:55:48;;;;;;;29.30;22.23;;;;;;;;;;5053034;28;20212;-45
2022/11/16 09:58:16;;;;;;;24.63;20.80;;;;;;;;;;5051551;28;20223;-45
2022/11/16 10:00:46;;;;;;;33.10;23.07;;;;;;;;;;5052964;28;20292;-44
2022/11/16 10:03:14;;;;;;;30.17;23.77;;;;;;;;;;5053108;28;20322;-45
2022/11/16 10:05:43;;;;;;;32.17;23.17;;;;;;;;;;5052948;28;20230;-47
2022/11/16 10:08:11;;;;;;;30.67;23.20;;;;;;;;;;5052814;28;20216;-45
2022/11/16 10:10:42;;;;;;;31.23;23.63;;;;;;;;;;5052042;28;20582;-45
2022/11/16 10:13:12;;;;;;;31.60;24.20;;;;;;;;;;5052321;28;20269;-47
2022/11/16 10:15:44;;;;;;;33.03;25.30;;;;;;;;;;5053150;28;20195;-45
2022/11/16 10:18:28;;;;;;;28.13;22.90;;;;;;;;;;5071690;28;20297;-45
2022/11/16 10:21:02;;;;;;;27.87;23.00;;;;;;;;;;5071469;28;20614;-45
2022/11/16 10:23:33;;;;;;;27.63;23.63;;;;;;;;;;5072855;28;20200;-45
2022/11/16 10:26:05;;;;;;;30.60;22.50;;;;;;;;;;5072206;28;20307;-45
2022/11/16 10:28:44;;;;;;;27.10;22.20;;;;;;;;;;5072449;28;20249;-46
2022/11/16 10:31:15;;;;;;;27.53;22.70;;;;;;;;;;5070354;28;20654;-45
2022/11/16 10:33:43;;;;;;;29.63;22.33;;;;;;;;;;5069438;28;20287;-44
2022/11/16 10:36:12;;;;;;;27.90;21.80;;;;;;;;;;5072547;28;20298;-44
2022/11/16 10:38:39;;;;;;;26.70;21.37;;;;;;;;;;5072315;28;20215;-44
2022/11/16 10:41:16;;;;;;;26.23;21.53;;;;;;;;;;5072295;28;20195;-45
2022/11/16 10:43:42;;;;;;;25.53;22.40;;;;;;;;;;5072283;28;20251;-45
2022/11/16 10:46:11;;;;;;;29.37;22.27;;;;;;;;;;5072233;28;20204;-45
2022/11/16 10:48:40;;;;;;;26.40;21.40;;;;;;;;;;5071957;28;20259;-45
2022/11/16 10:51:07;;;;;;;26.07;21.17;;;;;;;;;;5072403;28;20211;-45
2022/11/16 10:53:34;;;;;;;26.80;20.70;;;;;;;;;;5072128;28;20646;-45
2022/11/16 10:56:09;;;;;;;26.10;22.33;;;;;;;;;;5071903;28;20196;-44
2022/11/16 10:58:48;;;;;;;22.03;18.27;;;;;;;;;;5072113;28;20588;-44
2022/11/16 11:01:26;;;;;;;24.33;20.47;;;;;;;;;;5072164;28;20218;-44
2022/11/16 11:03:52;;;;;;;24.53;19.77;;;;;;;;;;5071956;28;20191;-45
2022/11/16 11:06:18;;;;;;;24.13;19.20;;;;;;;;;;5072142;28;20200;-44
2022/11/16 11:08:44;;;;;;;23.20;20.03;;;;;;;;;;5069520;28;20236;-47
2022/11/16 11:14:09;;;;;;;23.63;19.33;;;;;;;;;;5071180;28;20237;-46
2022/11/16 11:16:35;;;;;;;22.80;17.60;;;;;;;;;;5071689;28;20219;-46
2022/11/16 11:19:17;;;;;;;24.10;19.50;;;;;;;;;;5071027;28;20244;-46
2022/11/16 11:21:44;;;;;;;24.70;20.53;;;;;;;;;;5070970;28;20202;-46
2022/11/16 11:24:14;;;;;;;22.63;18.93;;;;;;;;;;5071471;28;20218;-46
2022/11/16 11:26:41;;;;;;;20.40;17.77;;;;;;;;;;5070433;28;20203;-46
2022/11/16 11:29:16;;;;;;;20.53;18.33;;;;;;;;;;5071231;28;20745;-46
2022/11/16 11:31:45;;;;;;;23.33;18.80;;;;;;;;;;5071393;28;20221;-46
2022/11/16 11:34:15;;;;;;;22.03;18.70;;;;;;;;;;5071258;28;20199;-45
2022/11/16 11:36:43;;;;;;;21.77;18.83;;;;;;;;;;5070751;28;20205;-45
2022/11/16 11:39:25;;;;;;;23.60;18.90;;;;;;;;;;5071106;28;20236;-45
2022/11/16 11:41:59;;;;;;;21.43;17.97;;;;;;;;;;5070939;28;20199;-45
2022/11/16 11:44:30;;;;;;;20.90;17.53;;;;;;;;;;5072725;28;20244;-45
2022/11/16 11:47:02;;;;;;;21.30;18.17;;;;;;;;;;5075302;28;20211;-45
2022/11/16 11:49:31;;;;;;;23.47;18.73;;;;;;;;;;5075188;28;20236;-45
2022/11/16 11:51:59;;;;;;;29.40;24.13;;;;;;;;;;5075158;28;20207;-45
2022/11/16 11:54:28;;;;;;;21.07;17.20;;;;;;;;;;5075069;28;20191;-45
2022/11/16 11:56:54;;;;;;;21.93;17.30;;;;;;;;;;5075063;28;20249;-45
2022/11/16 11:59:21;;;;;;;20.30;17.17;;;;;;;;;;5075307;28;20805;-45
2022/11/16 12:01:54;;;;;;;22.23;18.53;;;;;;;;;;5074751;28;20195;-45
2022/11/16 12:04:41;;;;;;;20.60;17.47;;;;;;;;;;5074384;28;20203;-45
2022/11/16 12:07:14;;;;;;;20.47;18.27;;;;;;;;;;5074993;28;20199;-45
2022/11/16 12:09:43;;;;;;;20.53;17.60;;;;;;;;;;5074641;28;20219;-45
2022/11/16 12:12:18;;;;;;;27.63;22.93;;;;;;;;;;5074614;28;20685;-46
2022/11/16 12:15:02;;;;;;;24.40;19.30;;;;;;;;;;5074726;28;20241;-46
2022/11/16 12:17:34;;;;;;;18.57;16.57;;;;;;;;;;5074796;28;20199;-46
2022/11/16 12:20:10;;;;;;;20.37;16.50;;;;;;;;;;5073136;28;20227;-45
2022/11/16 12:22:45;;;;;;;21.03;16.30;;;;;;;;;;5075135;28;20202;-46
2022/11/16 12:25:17;;;;;;;18.27;15.27;;;;;;;;;;5074979;28;20734;-44
2022/11/16 12:27:46;;;;;;;18.83;15.93;;;;;;;;;;5074930;28;20657;-45
2022/11/16 12:30:14;;;;;;;17.20;15.20;;;;;;;;;;5074840;28;20199;-45
2022/11/16 12:32:58;;;;;;;17.03;14.77;;;;;;;;;;5074914;28;20245;-46
2022/11/16 12:35:39;;;;;;;18.27;15.13;;;;;;;;;;5064665;28;20681;-43
2022/11/16 12:38:14;;;;;;;17.20;15.13;;;;;;;;;;5074641;28;20202;-46
2022/11/16 12:40:46;;;;;;;18.73;16.03;;;;;;;;;;5074748;28;20210;-44
2022/11/16 12:43:16;;;;;;;18.23;15.43;;;;;;;;;;5074686;28;20206;-44
2022/11/16 12:45:57;;;;;;;18.27;14.80;;;;;;;;;;5074426;28;20203;-44
2022/11/16 12:48:42;;;;;;;18.97;15.67;;;;;;;;;;5071910;28;20231;-45
2022/11/16 12:51:12;;;;;;;18.37;15.70;;;;;;;;;;5074508;28;20184;-46
2022/11/16 12:53:44;;;;;;;19.60;16.10;;;;;;;;;;5072887;28;20203;-46
2022/11/16 12:56:16;;;;;;;23.47;17.50;;;;;;;;;;5073335;28;20268;-46
2022/11/16 12:58:51;;;;;;;21.57;16.97;;;;;;;;;;5071472;28;20244;-46
2022/11/16 13:01:20;;;;;;;19.03;15.87;;;;;;;;;;5072895;28;20203;-46
2022/11/16 13:03:49;;;;;;;22.13;16.97;;;;;;;;;;5074255;28;20204;-46
2022/11/16 13:06:19;;;;;;;19.30;15.80;;;;;;;;;;5074205;28;20195;-46
2022/11/16 13:08:50;;;;;;;20.57;16.03;;;;;;;;;;5074093;28;20227;-46
2022/11/16 13:11:20;;;;;;;24.93;16.90;;;;;;;;;;5072243;28;20290;-46
2022/11/16 13:13:47;;;;;;;20.47;16.10;;;;;;;;;;5073621;28;20223;-46
2022/11/16 13:16:16;;;;;;;19.40;15.83;;;;;;;;;;5071989;28;20753;-46
2022/11/16 13:18:42;;;;;;;23.43;16.40;;;;;;;;;;5073411;28;20231;-48
2022/11/16 13:21:14;;;;;;;22.97;17.20;;;;;;;;;;5073828;28;20199;-45
2022/11/16 13:23:46;;;;;;;20.40;16.13;;;;;;;;;;5073340;28;20236;-45
2022/11/16 13:26:15;;;;;;;19.63;16.93;;;;;;;;;;5072402;28;20223;-46
2022/11/16 13:28:48;;;;;;;18.63;14.80;;;;;;;;;;5073579;28;20191;-46
2022/11/16 13:31:19;;;;;;;17.70;15.47;;;;;;;;;;5072322;28;20200;-45
2022/11/16 13:33:48;;;;;;;17.90;14.57;;;;;;;;;;5073170;28;20282;-45
2022/11/16 13:36:33;;;;;;;16.40;13.97;;;;;;;;;;5074050;28;20222;-45
2022/11/16 13:39:00;;;;;;;19.03;15.47;;;;;;;;;;5073314;28;20276;-45
2022/11/16 13:41:27;;;;;;;19.10;15.87;;;;;;;;;;5073400;28;20249;-46
2022/11/16 13:43:54;;;;;;;19.10;15.33;;;;;;;;;;5073604;28;20263;-46
2022/11/16 13:46:20;;;;;;;28.93;22.07;;;;;;;;;;5073868;28;20298;-46
2022/11/16 13:48:46;;;;;;;21.60;16.17;;;;;;;;;;5073278;28;20232;-46
2022/11/16 13:51:17;;;;;;;21.73;16.57;;;;;;;;;;5073626;28;20207;-45
2022/11/16 13:53:47;;;;;;;20.47;16.00;;;;;;;;;;5073453;28;20286;-48
2022/11/16 13:56:15;;;;;;;27.37;22.23;;;;;;;;;;5073705;28;20196;-46
2022/11/16 13:58:45;;;;;;;19.27;15.53;;;;;;;;;;5073396;28;20651;-46
2022/11/16 14:01:14;;;;;;;19.00;15.53;;;;;;;;;;5073576;28;20203;-46
2022/11/16 14:03:41;;;;;;;17.00;14.43;;;;;;;;;;5073389;28;20203;-46
2022/11/16 14:06:22;;;;;;;15.27;13.37;;;;;;;;;;5072706;28;20195;-45
2022/11/16 14:08:49;;;;;;;17.30;13.93;;;;;;;;;;5072734;28;20243;-45
2022/11/16 14:11:30;;;;;;;18.90;14.10;;;;;;;;;;5070496;28;20569;-46
2022/11/16 14:13:56;;;;;;;21.20;16.73;;;;;;;;;;5072345;28;20207;-44
2022/11/16 14:16:42;;;;;;;19.47;15.80;;;;;;;;;;5068374;28;20204;-44
2022/11/16 14:19:40;;;;;;;16.47;12.83;;;;;;;;;;5071903;28;20251;-45
2022/11/16 14:22:09;;;;;;;15.17;12.27;;;;;;;;;;5071621;28;20199;-45
2022/11/16 14:24:38;;;;;;;14.07;12.37;;;;;;;;;;5071947;28;20650;-45
2022/11/16 14:27:09;;;;;;;15.77;13.20;;;;;;;;;;5071746;28;20203;-46
2022/11/16 14:29:47;;;;;;;14.43;11.90;;;;;;;;;;5071731;28;20199;-45
2022/11/16 14:32:18;;;;;;;19.47;16.00;;;;;;;;;;5071720;28;20562;-45
2022/11/16 14:34:46;;;;;;;13.87;11.37;;;;;;;;;;5071297;28;20210;-45
2022/11/16 14:37:14;;;;;;;16.87;12.90;;;;;;;;;;5071391;28;20203;-44
2022/11/16 14:39:41;;;;;;;12.90;10.83;;;;;;;;;;5071560;28;20281;-45
2022/11/16 14:42:17;;;;;;;11.07;9.90;;;;;;;;;;5071365;28;20199;-44
2022/11/16 14:44:43;;;;;;;12.83;10.13;;;;;;;;;;5071974;28;20203;-45
2022/11/16 14:47:18;;;;;;;25.67;19.10;;;;;;;;;;5071752;28;20211;-45
2022/11/16 14:49:45;;;;;;;17.13;13.07;;;;;;;;;;5071785;28;20722;-44
2022/11/16 14:52:11;;;;;;;11.10;9.90;;;;;;;;;;5070499;28;20219;-44
2022/11/16 14:54:41;;;;;;;12.77;10.47;;;;;;;;;;5072234;28;20242;-44
2022/11/16 14:57:12;;;;;;;12.70;10.90;;;;;;;;;;5072076;28;20287;-45
2022/11/16 14:59:40;;;;;;;11.57;10.37;;;;;;;;;;5071914;28;20227;-44
2022/11/16 15:02:13;;;;;;;14.50;11.03;;;;;;;;;;5072059;28;20211;-44
2022/11/16 15:04:39;;;;;;;12.50;10.20;;;;;;;;;;5072079;28;20253;-44
2022/11/16 15:07:06;;;;;;;13.23;11.47;;;;;;;;;;5071996;28;20642;-45
2022/11/16 15:09:37;;;;;;;13.50;11.67;;;;;;;;;;5071976;28;20219;-45